sensor_id;sensor_type;location;lat;lon;timestamp;pressure;altitude;pressure_sealevel;temperature;humidity
19553;BME280;9420;50.876;7.012;2023-05-08T00:00:38;101458.09;;;38.82;47.95
19553;BME280;9420;50.876;7.012;2023-05-08T00:03:06;101452.16;;;37.52;48.84
19553;BME280;9420;50.876;7.012;2023-05-08T00:05:35;101461.19;;;37.80;48.81
19553;BME280;9420;50.876;7.012;2023-05-08T00:08:02;101461.16;;;37.11;49.26
19553;BME280;9420;50.876;7.012;2023-05-08T00:10:30;101462.91;;;37.81;48.20
19553;BME280;9420;50.876;7.012;2023-05-08T00:12:57;101474.13;;;38.40;47.63
19553;BME280;9420;50.876;7.012;2023-05-08T00:15:24;101477.94;;;37.85;48.57
19553;BME280;9420;50.876;7.012;2023-05-08T00:17:51;101481.16;;;37.95;48.37
19553;BME280;9420;50.876;7.012;2023-05-08T00:20:18;101479.41;;;37.25;49.43
19553;BME280;9420;50.876;7.012;2023-05-08T00:22:47;101497.06;;;38.06;47.87
19553;BME280;9420;50.876;7.012;2023-05-08T00:25:14;101484.28;;;38.59;47.57
19553;BME280;9420;50.876;7.012;2023-05-08T00:27:41;101480.56;;;37.72;48.29
19553;BME280;9420;50.876;7.012;2023-05-08T00:30:09;101488.06;;;38.38;47.49
19553;BME280;9420;50.876;7.012;2023-05-08T00:32:36;101479.91;;;38.10;47.50
19553;BME280;9420;50.876;7.012;2023-05-08T00:35:04;101490.50;;;37.73;47.37
19553;BME280;9420;50.876;7.012;2023-05-08T00:37:31;101485.31;;;38.38;46.34
19553;BME280;9420;50.876;7.012;2023-05-08T00:39:59;101494.03;;;38.42;46.69
19553;BME280;9420;50.876;7.012;2023-05-08T00:42:26;101490.63;;;38.40;46.44
19553;BME280;9420;50.876;7.012;2023-05-08T00:44:53;101491.91;;;38.50;46.51
19553;BME280;9420;50.876;7.012;2023-05-08T00:47:21;101495.34;;;37.71;47.45
19553;BME280;9420;50.876;7.012;2023-05-08T00:49:48;101486.59;;;38.29;46.64
19553;BME280;9420;50.876;7.012;2023-05-08T00:52:16;101496.34;;;37.91;47.53
19553;BME280;9420;50.876;7.012;2023-05-08T00:54:45;101491.56;;;38.92;45.87
19553;BME280;9420;50.876;7.012;2023-05-08T00:57:15;101496.66;;;38.89;46.54
19553;BME280;9420;50.876;7.012;2023-05-08T00:59:43;101484.72;;;38.49;46.51
19553;BME280;9420;50.876;7.012;2023-05-08T01:02:12;101493.78;;;38.30;47.14
19553;BME280;9420;50.876;7.012;2023-05-08T01:04:41;101488.97;;;38.58;46.67
19553;BME280;9420;50.876;7.012;2023-05-08T01:07:10;101497.34;;;38.24;46.85
19553;BME280;9420;50.876;7.012;2023-05-08T01:09:37;101495.56;;;38.97;45.73
19553;BME280;9420;50.876;7.012;2023-05-08T01:12:16;101481.06;;;37.82;47.57
19553;BME280;9420;50.876;7.012;2023-05-08T01:15:04;101487.66;;;37.53;47.67
19553;BME280;9420;50.876;7.012;2023-05-08T01:17:44;101493.66;;;38.04;47.47
19553;BME280;9420;50.876;7.012;2023-05-08T01:20:38;101485.97;;;38.40;46.75
19553;BME280;9420;50.876;7.012;2023-05-08T01:27:46;101490.72;;;38.85;45.84
19553;BME280;9420;50.876;7.012;2023-05-08T01:30:59;101484.50;;;37.90;46.92
19553;BME280;9420;50.876;7.012;2023-05-08T01:33:36;101482.66;;;38.77;45.77
19553;BME280;9420;50.876;7.012;2023-05-08T01:36:19;101487.06;;;38.52;46.10
19553;BME280;9420;50.876;7.012;2023-05-08T01:38:59;101484.25;;;38.26;46.71
19553;BME280;9420;50.876;7.012;2023-05-08T01:41:33;101476.06;;;38.65;46.23
19553;BME280;9420;50.876;7.012;2023-05-08T01:44:12;101472.47;;;39.63;44.93
19553;BME280;9420;50.876;7.012;2023-05-08T01:46:41;101477.34;;;38.02;46.58
19553;BME280;9420;50.876;7.012;2023-05-08T01:49:21;101481.34;;;38.60;45.96
19553;BME280;9420;50.876;7.012;2023-05-08T01:52:00;101485.00;;;38.80;45.71
19553;BME280;9420;50.876;7.012;2023-05-08T01:54:38;101485.97;;;38.40;46.22
19553;BME280;9420;50.876;7.012;2023-05-08T01:57:09;101499.69;;;37.80;47.41
19553;BME280;9420;50.876;7.012;2023-05-08T01:59:40;101500.66;;;38.13;46.84
19553;BME280;9420;50.876;7.012;2023-05-08T02:02:09;101499.72;;;37.24;47.95
19553;BME280;9420;50.876;7.012;2023-05-08T02:04:40;101503.88;;;37.20;48.23
19553;BME280;9420;50.876;7.012;2023-05-08T02:07:09;101509.50;;;36.28;50.03
19553;BME280;9420;50.876;7.012;2023-05-08T02:09:38;101515.03;;;35.69;50.95
19553;BME280;9420;50.876;7.012;2023-05-08T02:12:08;101511.56;;;37.31;48.74
19553;BME280;9420;50.876;7.012;2023-05-08T02:14:38;101516.88;;;36.63;49.25
19553;BME280;9420;50.876;7.012;2023-05-08T02:17:08;101519.94;;;36.39;50.12
19553;BME280;9420;50.876;7.012;2023-05-08T02:19:41;101519.34;;;36.08;50.74
19553;BME280;9420;50.876;7.012;2023-05-08T02:22:11;101517.09;;;36.68;49.68
19553;BME280;9420;50.876;7.012;2023-05-08T02:24:41;101524.59;;;36.74;49.33
19553;BME280;9420;50.876;7.012;2023-05-08T02:27:12;101523.25;;;35.69;50.19
19553;BME280;9420;50.876;7.012;2023-05-08T02:29:41;101514.50;;;36.60;49.54
19553;BME280;9420;50.876;7.012;2023-05-08T02:32:09;101525.09;;;36.63;49.21
19553;BME280;9420;50.876;7.012;2023-05-08T02:34:37;101522.16;;;36.64;49.29
19553;BME280;9420;50.876;7.012;2023-05-08T02:37:07;101534.19;;;32.75;57.99
19553;BME280;9420;50.876;7.012;2023-05-08T02:39:37;101530.47;;;33.25;57.94
19553;BME280;9420;50.876;7.012;2023-05-08T02:42:05;101522.84;;;35.72;53.99
19553;BME280;9420;50.876;7.012;2023-05-08T02:44:34;101535.09;;;33.08;58.29
19553;BME280;9420;50.876;7.012;2023-05-08T02:47:14;101532.50;;;34.71;56.32
19553;BME280;9420;50.876;7.012;2023-05-08T02:49:51;101530.13;;;35.80;52.09
19553;BME280;9420;50.876;7.012;2023-05-08T02:52:28;101538.84;;;35.17;56.14
19553;BME280;9420;50.876;7.012;2023-05-08T02:55:02;101535.50;;;36.32;52.55
19553;BME280;9420;50.876;7.012;2023-05-08T02:57:40;101529.66;;;35.47;53.23
19553;BME280;9420;50.876;7.012;2023-05-08T03:00:15;101544.25;;;33.47;56.60
19553;BME280;9420;50.876;7.012;2023-05-08T03:02:52;101539.22;;;34.30;55.05
19553;BME280;9420;50.876;7.012;2023-05-08T03:05:29;101545.09;;;33.72;59.77
19553;BME280;9420;50.876;7.012;2023-05-08T03:08:02;101535.66;;;37.29;50.59
19553;BME280;9420;50.876;7.012;2023-05-08T03:10:33;101530.56;;;37.26;50.14
19553;BME280;9420;50.876;7.012;2023-05-08T03:13:04;101527.28;;;37.37;49.14
19553;BME280;9420;50.876;7.012;2023-05-08T03:15:40;101511.13;;;42.29;42.08
19553;BME280;9420;50.876;7.012;2023-05-08T03:18:14;101510.28;;;42.29;41.41
19553;BME280;9420;50.876;7.012;2023-05-08T03:20:46;101528.94;;;37.94;46.58
19553;BME280;9420;50.876;7.012;2023-05-08T03:23:17;101523.44;;;37.94;47.17
19553;BME280;9420;50.876;7.012;2023-05-08T03:25:45;101509.59;;;37.47;47.50
19553;BME280;9420;50.876;7.012;2023-05-08T03:28:15;101516.47;;;38.45;46.86
19553;BME280;9420;50.876;7.012;2023-05-08T03:30:44;101515.72;;;39.04;45.83
19553;BME280;9420;50.876;7.012;2023-05-08T03:33:12;101504.91;;;39.48;44.47
19553;BME280;9420;50.876;7.012;2023-05-08T03:35:41;101517.81;;;37.19;46.22
19553;BME280;9420;50.876;7.012;2023-05-08T03:38:08;101515.38;;;37.92;46.73
19553;BME280;9420;50.876;7.012;2023-05-08T03:40:37;101520.41;;;36.99;47.39
19553;BME280;9420;50.876;7.012;2023-05-08T03:43:06;101522.63;;;37.66;47.52
19553;BME280;9420;50.876;7.012;2023-05-08T03:45:35;101512.03;;;37.97;46.45
19553;BME280;9420;50.876;7.012;2023-05-08T03:48:05;101524.28;;;37.94;46.14
19553;BME280;9420;50.876;7.012;2023-05-08T03:50:36;101522.56;;;38.34;46.50
19553;BME280;9420;50.876;7.012;2023-05-08T03:53:03;101526.91;;;37.75;46.93
19553;BME280;9420;50.876;7.012;2023-05-08T03:55:31;101522.56;;;37.87;47.19
19553;BME280;9420;50.876;7.012;2023-05-08T03:58:12;101509.09;;;42.54;41.02
19553;BME280;9420;50.876;7.012;2023-05-08T04:00:57;101515.72;;;39.04;44.08
19553;BME280;9420;50.876;7.012;2023-05-08T04:03:43;101523.97;;;39.04;44.59
19553;BME280;9420;50.876;7.012;2023-05-08T04:06:23;101514.41;;;38.67;44.21
19553;BME280;9420;50.876;7.012;2023-05-08T04:09:02;101519.75;;;38.81;44.24
19553;BME280;9420;50.876;7.012;2023-05-08T04:11:37;101511.47;;;37.74;45.90
19553;BME280;9420;50.876;7.012;2023-05-08T04:14:15;101517.81;;;38.88;45.19
19553;BME280;9420;50.876;7.012;2023-05-08T04:16:50;101518.78;;;37.94;45.69
19553;BME280;9420;50.876;7.012;2023-05-08T04:19:23;101513.03;;;40.89;43.78
19553;BME280;9420;50.876;7.012;2023-05-08T04:21:56;101524.97;;;38.63;44.72
19553;BME280;9420;50.876;7.012;2023-05-08T04:24:27;101518.63;;;38.56;44.33
19553;BME280;9420;50.876;7.012;2023-05-08T04:26:55;101531.50;;;37.68;45.67
19553;BME280;9420;50.876;7.012;2023-05-08T04:29:24;101537.63;;;37.63;45.71
19553;BME280;9420;50.876;7.012;2023-05-08T04:31:52;101534.38;;;35.53;49.13
19553;BME280;9420;50.876;7.012;2023-05-08T04:34:19;101528.41;;;38.18;44.75
19553;BME280;9420;50.876;7.012;2023-05-08T04:36:46;101530.91;;;38.67;44.50
19553;BME280;9420;50.876;7.012;2023-05-08T04:39:14;101533.50;;;38.88;43.82
19553;BME280;9420;50.876;7.012;2023-05-08T04:41:41;101528.81;;;38.75;43.87
19553;BME280;9420;50.876;7.012;2023-05-08T04:44:08;101534.47;;;38.00;44.52
19553;BME280;9420;50.876;7.012;2023-05-08T04:46:37;101533.13;;;37.90;45.12
19553;BME280;9420;50.876;7.012;2023-05-08T04:49:04;101529.91;;;37.52;45.83
19553;BME280;9420;50.876;7.012;2023-05-08T04:51:32;101539.88;;;37.87;45.58
19553;BME280;9420;50.876;7.012;2023-05-08T04:53:59;101539.59;;;38.10;44.97
19553;BME280;9420;50.876;7.012;2023-05-08T04:56:26;101543.22;;;38.17;45.23
19553;BME280;9420;50.876;7.012;2023-05-08T04:58:53;101559.38;;;36.88;46.95
19553;BME280;9420;50.876;7.012;2023-05-08T05:01:20;101554.97;;;37.15;47.00
19553;BME280;9420;50.876;7.012;2023-05-08T05:03:48;101553.72;;;37.17;46.46
19553;BME280;9420;50.876;7.012;2023-05-08T05:06:15;101550.75;;;37.68;46.78
19553;BME280;9420;50.876;7.012;2023-05-08T05:08:42;101556.31;;;37.25;46.62
19553;BME280;9420;50.876;7.012;2023-05-08T05:11:09;101550.03;;;37.31;46.04
19553;BME280;9420;50.876;7.012;2023-05-08T05:13:36;101556.28;;;36.98;46.79
19553;BME280;9420;50.876;7.012;2023-05-08T05:16:04;101557.75;;;38.04;45.16
19553;BME280;9420;50.876;7.012;2023-05-08T05:18:34;101563.47;;;37.20;46.32
19553;BME280;9420;50.876;7.012;2023-05-08T05:21:03;101560.03;;;37.67;46.09
19553;BME280;9420;50.876;7.012;2023-05-08T05:23:30;101560.00;;;37.60;45.86
19553;BME280;9420;50.876;7.012;2023-05-08T05:25:57;101563.66;;;37.39;46.33
19553;BME280;9420;50.876;7.012;2023-05-08T05:28:24;101570.63;;;36.79;46.31
19553;BME280;9420;50.876;7.012;2023-05-08T05:30:51;101556.78;;;38.18;45.42
19553;BME280;9420;50.876;7.012;2023-05-08T05:33:18;101571.72;;;38.03;44.67
19553;BME280;9420;50.876;7.012;2023-05-08T05:35:45;101566.50;;;39.93;42.64
19553;BME280;9420;50.876;7.012;2023-05-08T05:38:14;101572.47;;;39.96;41.97
19553;BME280;9420;50.876;7.012;2023-05-08T05:40:41;101572.50;;;39.83;42.16
19553;BME280;9420;50.876;7.012;2023-05-08T05:43:08;101570.59;;;37.63;45.09
19553;BME280;9420;50.876;7.012;2023-05-08T05:45:35;101570.47;;;37.78;44.82
19553;BME280;9420;50.876;7.012;2023-05-08T05:48:04;101570.16;;;38.28;44.92
19553;BME280;9420;50.876;7.012;2023-05-08T05:50:33;101576.56;;;38.35;44.74
19553;BME280;9420;50.876;7.012;2023-05-08T05:53:00;101588.16;;;37.34;45.79
19553;BME280;9420;50.876;7.012;2023-05-08T05:55:28;101594.50;;;35.69;47.95
19553;BME280;9420;50.876;7.012;2023-05-08T05:57:56;101593.16;;;38.61;44.37
19553;BME280;9420;50.876;7.012;2023-05-08T06:00:23;101596.59;;;37.88;44.90
19553;BME280;9420;50.876;7.012;2023-05-08T06:02:50;101601.75;;;39.06;43.74
19553;BME280;9420;50.876;7.012;2023-05-08T06:05:17;101603.16;;;37.94;44.84
19553;BME280;9420;50.876;7.012;2023-05-08T06:07:45;101583.78;;;38.49;44.12
19553;BME280;9420;50.876;7.012;2023-05-08T06:10:12;101597.00;;;38.73;43.72
19553;BME280;9420;50.876;7.012;2023-05-08T06:12:40;101595.44;;;39.64;42.36
19553;BME280;9420;50.876;7.012;2023-05-08T06:15:08;101600.47;;;37.73;45.02
19553;BME280;9420;50.876;7.012;2023-05-08T06:17:35;101602.50;;;38.67;44.25
19553;BME280;9420;50.876;7.012;2023-05-08T06:20:04;101598.72;;;37.37;45.59
19553;BME280;9420;50.876;7.012;2023-05-08T06:22:31;101602.78;;;37.69;45.64
19553;BME280;9420;50.876;7.012;2023-05-08T06:24:58;101602.59;;;37.43;45.79
19553;BME280;9420;50.876;7.012;2023-05-08T06:27:25;101604.34;;;39.20;43.22
19553;BME280;9420;50.876;7.012;2023-05-08T06:29:53;101611.97;;;39.25;42.74
19553;BME280;9420;50.876;7.012;2023-05-08T06:32:21;101608.03;;;38.26;44.74
19553;BME280;9420;50.876;7.012;2023-05-08T06:34:48;101605.09;;;38.00;44.38
19553;BME280;9420;50.876;7.012;2023-05-08T06:37:16;101600.44;;;38.82;43.67
19553;BME280;9420;50.876;7.012;2023-05-08T06:39:43;101610.91;;;39.52;42.98
19553;BME280;9420;50.876;7.012;2023-05-08T06:42:11;101603.53;;;39.59;42.80
19553;BME280;9420;50.876;7.012;2023-05-08T06:44:38;101599.47;;;38.55;44.03
19553;BME280;9420;50.876;7.012;2023-05-08T06:47:07;101607.25;;;39.06;43.58
19553;BME280;9420;50.876;7.012;2023-05-08T06:49:35;101609.59;;;37.24;44.76
19553;BME280;9420;50.876;7.012;2023-05-08T06:52:02;101599.88;;;39.13;42.93
19553;BME280;9420;50.876;7.012;2023-05-08T06:54:29;101611.06;;;38.44;43.87
19553;BME280;9420;50.876;7.012;2023-05-08T06:56:56;101612.19;;;39.49;42.92
19553;BME280;9420;50.876;7.012;2023-05-08T06:59:23;101608.19;;;39.72;42.43
19553;BME280;9420;50.876;7.012;2023-05-08T07:01:50;101597.28;;;40.09;42.02
19553;BME280;9420;50.876;7.012;2023-05-08T07:04:19;101599.31;;;40.78;41.33
19553;BME280;9420;50.876;7.012;2023-05-08T07:06:46;101603.75;;;40.41;41.50
19553;BME280;9420;50.876;7.012;2023-05-08T07:09:13;101599.06;;;40.48;41.40
19553;BME280;9420;50.876;7.012;2023-05-08T07:11:41;101604.75;;;39.43;42.91
19553;BME280;9420;50.876;7.012;2023-05-08T07:14:08;101595.81;;;38.96;43.53
19553;BME280;9420;50.876;7.012;2023-05-08T07:16:35;101602.44;;;38.54;43.58
19553;BME280;9420;50.876;7.012;2023-05-08T07:19:02;101598.72;;;40.18;41.80
19553;BME280;9420;50.876;7.012;2023-05-08T07:21:30;101606.47;;;39.38;42.69
19553;BME280;9420;50.876;7.012;2023-05-08T07:23:57;101594.56;;;39.83;43.03
19553;BME280;9420;50.876;7.012;2023-05-08T07:26:24;101606.38;;;38.79;43.71
19553;BME280;9420;50.876;7.012;2023-05-08T07:28:52;101600.00;;;40.16;42.44
19553;BME280;9420;50.876;7.012;2023-05-08T07:31:19;101601.88;;;40.73;41.50
19553;BME280;9420;50.876;7.012;2023-05-08T07:33:47;101612.75;;;40.17;41.71
19553;BME280;9420;50.876;7.012;2023-05-08T07:36:14;101609.63;;;40.95;41.42
19553;BME280;9420;50.876;7.012;2023-05-08T07:38:42;101621.63;;;40.25;41.74
19553;BME280;9420;50.876;7.012;2023-05-08T07:41:09;101614.78;;;40.48;42.10
19553;BME280;9420;50.876;7.012;2023-05-08T07:43:36;101608.34;;;40.98;41.00
19553;BME280;9420;50.876;7.012;2023-05-08T07:46:04;101606.94;;;40.89;40.83
19553;BME280;9420;50.876;7.012;2023-05-08T07:48:31;101596.22;;;40.10;42.52
19553;BME280;9420;50.876;7.012;2023-05-08T07:50:58;101610.00;;;40.10;42.23
19553;BME280;9420;50.876;7.012;2023-05-08T07:53:25;101612.47;;;40.89;40.59
19553;BME280;9420;50.876;7.012;2023-05-08T07:55:53;101615.81;;;41.53;39.80
19553;BME280;9420;50.876;7.012;2023-05-08T07:58:20;101606.00;;;42.36;39.29
19553;BME280;9420;50.876;7.012;2023-05-08T08:00:47;101617.09;;;42.18;39.21
19553;BME280;9420;50.876;7.012;2023-05-08T08:03:14;101620.00;;;41.62;39.71
19553;BME280;9420;50.876;7.012;2023-05-08T08:05:42;101621.84;;;41.12;39.95
19553;BME280;9420;50.876;7.012;2023-05-08T08:08:09;101619.31;;;42.28;39.13
19553;BME280;9420;50.876;7.012;2023-05-08T08:10:37;101609.94;;;42.11;39.34
19553;BME280;9420;50.876;7.012;2023-05-08T08:13:05;101615.84;;;40.47;39.93
19553;BME280;9420;50.876;7.012;2023-05-08T08:15:32;101621.63;;;41.70;39.38
19553;BME280;9420;50.876;7.012;2023-05-08T08:17:59;101628.09;;;41.64;37.93
19553;BME280;9420;50.876;7.012;2023-05-08T08:20:26;101621.09;;;41.79;39.40
19553;BME280;9420;50.876;7.012;2023-05-08T08:22:53;101624.44;;;40.70;40.01
19553;BME280;9420;50.876;7.012;2023-05-08T08:25:21;101627.59;;;41.11;38.86
19553;BME280;9420;50.876;7.012;2023-05-08T08:27:48;101624.22;;;41.89;38.84
19553;BME280;9420;50.876;7.012;2023-05-08T08:30:16;101626.72;;;42.52;38.70
19553;BME280;9420;50.876;7.012;2023-05-08T08:32:43;101621.16;;;42.52;37.70
19553;BME280;9420;50.876;7.012;2023-05-08T08:35:11;101622.56;;;42.91;37.53
19553;BME280;9420;50.876;7.012;2023-05-08T08:37:38;101618.22;;;45.41;33.26
19553;BME280;9420;50.876;7.012;2023-05-08T08:40:07;101620.53;;;43.27;36.62
19553;BME280;9420;50.876;7.012;2023-05-08T08:42:36;101632.81;;;42.00;38.21
19553;BME280;9420;50.876;7.012;2023-05-08T08:45:05;101630.56;;;41.72;38.69
19553;BME280;9420;50.876;7.012;2023-05-08T08:47:36;101624.56;;;43.66;36.43
19553;BME280;9420;50.876;7.012;2023-05-08T08:50:07;101621.56;;;43.68;37.19
19553;BME280;9420;50.876;7.012;2023-05-08T08:52:40;101615.50;;;43.71;36.44
19553;BME280;9420;50.876;7.012;2023-05-08T08:55:14;101606.13;;;43.72;36.51
19553;BME280;9420;50.876;7.012;2023-05-08T08:58:02;101611.84;;;43.35;37.23
19553;BME280;9420;50.876;7.012;2023-05-08T09:00:36;101616.69;;;43.52;37.33
19553;BME280;9420;50.876;7.012;2023-05-08T09:03:06;101621.59;;;42.85;36.76
19553;BME280;9420;50.876;7.012;2023-05-08T09:05:34;101617.88;;;43.03;36.52
19553;BME280;9420;50.876;7.012;2023-05-08T09:08:02;101621.59;;;43.26;36.73
19553;BME280;9420;50.876;7.012;2023-05-08T09:10:29;101628.16;;;43.02;36.87
19553;BME280;9420;50.876;7.012;2023-05-08T09:12:56;101624.13;;;42.68;36.88
19553;BME280;9420;50.876;7.012;2023-05-08T09:15:23;101633.19;;;42.46;37.29
19553;BME280;9420;50.876;7.012;2023-05-08T09:17:50;101622.72;;;42.48;37.64
19553;BME280;9420;50.876;7.012;2023-05-08T09:20:20;101631.00;;;42.12;37.51
19553;BME280;9420;50.876;7.012;2023-05-08T09:22:50;101626.63;;;41.79;37.42
19553;BME280;9420;50.876;7.012;2023-05-08T09:25:17;101626.22;;;42.55;37.91
19553;BME280;9420;50.876;7.012;2023-05-08T09:27:44;101626.56;;;42.29;38.16
19553;BME280;9420;50.876;7.012;2023-05-08T09:30:12;101624.84;;;42.28;38.65
19553;BME280;9420;50.876;7.012;2023-05-08T09:32:41;101635.00;;;42.16;38.05
19553;BME280;9420;50.876;7.012;2023-05-08T09:35:10;101627.72;;;41.54;39.08
19553;BME280;9420;50.876;7.012;2023-05-08T09:37:40;101620.41;;;41.41;38.57
19553;BME280;9420;50.876;7.012;2023-05-08T09:40:19;101637.88;;;39.63;40.84
19553;BME280;9420;50.876;7.012;2023-05-08T09:42:48;101619.72;;;42.79;38.84
19553;BME280;9420;50.876;7.012;2023-05-08T09:45:31;101624.03;;;42.27;38.24
19553;BME280;9420;50.876;7.012;2023-05-08T09:47:59;101614.03;;;44.26;37.24
19553;BME280;9420;50.876;7.012;2023-05-08T09:50:26;101624.88;;;42.10;37.75
19553;BME280;9420;50.876;7.012;2023-05-08T09:52:55;101619.75;;;46.42;33.54
19553;BME280;9420;50.876;7.012;2023-05-08T09:55:22;101629.69;;;45.45;33.65
19553;BME280;9420;50.876;7.012;2023-05-08T09:57:54;101639.94;;;42.50;37.12
19553;BME280;9420;50.876;7.012;2023-05-08T10:00:23;101636.50;;;41.13;38.46
19553;BME280;9420;50.876;7.012;2023-05-08T10:02:56;101642.31;;;40.61;38.75
19553;BME280;9420;50.876;7.012;2023-05-08T10:05:25;101645.91;;;41.12;38.33
19553;BME280;9420;50.876;7.012;2023-05-08T10:07:56;101645.19;;;40.85;39.02
19553;BME280;9420;50.876;7.012;2023-05-08T10:10:24;101642.75;;;40.58;38.71
19553;BME280;9420;50.876;7.012;2023-05-08T10:12:54;101643.13;;;41.12;38.67
19553;BME280;9420;50.876;7.012;2023-05-08T10:15:24;101645.16;;;40.92;38.66
19553;BME280;9420;50.876;7.012;2023-05-08T10:18:00;101638.06;;;40.65;39.15
19553;BME280;9420;50.876;7.012;2023-05-08T10:20:30;101641.97;;;40.51;39.01
19553;BME280;9420;50.876;7.012;2023-05-08T10:23:00;101638.88;;;40.72;38.88
19553;BME280;9420;50.876;7.012;2023-05-08T10:25:32;101643.34;;;39.83;40.51
19553;BME280;9420;50.876;7.012;2023-05-08T10:28:09;101629.88;;;40.38;39.42
19553;BME280;9420;50.876;7.012;2023-05-08T10:30:44;101637.84;;;39.37;40.73
19553;BME280;9420;50.876;7.012;2023-05-08T10:33:18;101641.22;;;39.26;41.20
19553;BME280;9420;50.876;7.012;2023-05-08T10:35:47;101638.28;;;39.34;40.39
19553;BME280;9420;50.876;7.012;2023-05-08T10:38:16;101632.00;;;40.81;39.33
19553;BME280;9420;50.876;7.012;2023-05-08T10:40:44;101620.22;;;40.03;39.98
19553;BME280;9420;50.876;7.012;2023-05-08T10:43:12;101621.41;;;40.78;39.24
19553;BME280;9420;50.876;7.012;2023-05-08T10:45:40;101611.91;;;41.36;38.25
19553;BME280;9420;50.876;7.012;2023-05-08T10:48:18;101604.38;;;43.94;36.53
19553;BME280;9420;50.876;7.012;2023-05-08T10:51:02;101601.31;;;45.15;33.23
19553;BME280;9420;50.876;7.012;2023-05-08T10:53:39;101611.53;;;40.64;39.06
19553;BME280;9420;50.876;7.012;2023-05-08T10:56:09;101614.31;;;40.57;39.02
19553;BME280;9420;50.876;7.012;2023-05-08T10:58:37;101616.47;;;40.49;40.29
19553;BME280;9420;50.876;7.012;2023-05-08T11:01:13;101620.97;;;41.74;38.52
19553;BME280;9420;50.876;7.012;2023-05-08T11:03:47;101614.63;;;41.67;38.21
19553;BME280;9420;50.876;7.012;2023-05-08T11:06:16;101615.22;;;41.20;39.20
19553;BME280;9420;50.876;7.012;2023-05-08T11:08:48;101621.66;;;41.14;38.93
19553;BME280;9420;50.876;7.012;2023-05-08T11:11:27;101616.59;;;41.04;39.14
19553;BME280;9420;50.876;7.012;2023-05-08T11:14:08;101619.16;;;39.91;40.09
19553;BME280;9420;50.876;7.012;2023-05-08T11:17:05;101616.59;;;40.09;40.13
19553;BME280;9420;50.876;7.012;2023-05-08T11:19:34;101614.50;;;41.00;38.97
19553;BME280;9420;50.876;7.012;2023-05-08T11:22:25;101626.00;;;39.76;40.07
19553;BME280;9420;50.876;7.012;2023-05-08T11:25:04;101612.38;;;41.58;38.37
19553;BME280;9420;50.876;7.012;2023-05-08T11:27:35;101618.84;;;40.83;39.12
19553;BME280;9420;50.876;7.012;2023-05-08T11:30:19;101614.66;;;41.85;38.31
19553;BME280;9420;50.876;7.012;2023-05-08T11:32:58;101611.50;;;40.06;39.95
19553;BME280;9420;50.876;7.012;2023-05-08T11:35:46;101609.75;;;40.25;40.75
19553;BME280;9420;50.876;7.012;2023-05-08T11:38:22;101604.31;;;39.92;41.76
19553;BME280;9420;50.876;7.012;2023-05-08T11:41:04;101594.94;;;39.93;41.91
19553;BME280;9420;50.876;7.012;2023-05-08T11:46:52;101599.47;;;41.52;40.31
19553;BME280;9420;50.876;7.012;2023-05-08T11:49:21;101595.78;;;42.37;39.13
19553;BME280;9420;50.876;7.012;2023-05-08T11:51:51;101602.44;;;43.36;37.01
19553;BME280;9420;50.876;7.012;2023-05-08T11:54:21;101597.66;;;43.67;36.59
19553;BME280;9420;50.876;7.012;2023-05-08T11:56:51;101593.00;;;44.30;35.36
19553;BME280;9420;50.876;7.012;2023-05-08T11:59:20;101589.94;;;44.71;36.15
19553;BME280;9420;50.876;7.012;2023-05-08T12:01:48;101588.59;;;44.46;36.64
19553;BME280;9420;50.876;7.012;2023-05-08T12:04:16;101590.31;;;44.35;36.32
19553;BME280;9420;50.876;7.012;2023-05-08T12:06:43;101579.94;;;46.47;33.99
19553;BME280;9420;50.876;7.012;2023-05-08T12:09:15;101592.78;;;44.20;36.53
19553;BME280;9420;50.876;7.012;2023-05-08T12:11:43;101581.72;;;44.48;35.24
19553;BME280;9420;50.876;7.012;2023-05-08T12:14:16;101591.59;;;43.93;35.92
19553;BME280;9420;50.876;7.012;2023-05-08T12:16:44;101580.19;;;44.29;36.06
19553;BME280;9420;50.876;7.012;2023-05-08T12:19:12;101579.78;;;44.49;35.50
19553;BME280;9420;50.876;7.012;2023-05-08T12:21:45;101587.84;;;44.10;35.78
19553;BME280;9420;50.876;7.012;2023-05-08T12:24:14;101578.47;;;45.13;35.48
19553;BME280;9420;50.876;7.012;2023-05-08T12:26:47;101578.13;;;45.92;34.95
19553;BME280;9420;50.876;7.012;2023-05-08T12:29:20;101573.34;;;46.09;34.53
19553;BME280;9420;50.876;7.012;2023-05-08T12:31:48;101573.59;;;45.53;34.59
19553;BME280;9420;50.876;7.012;2023-05-08T12:34:15;101578.94;;;44.48;35.54
19553;BME280;9420;50.876;7.012;2023-05-08T12:36:43;101578.22;;;44.41;35.25
19553;BME280;9420;50.876;7.012;2023-05-08T12:39:15;101564.59;;;46.22;35.10
19553;BME280;9420;50.876;7.012;2023-05-08T12:41:47;101568.16;;;45.41;33.76
19553;BME280;9420;50.876;7.012;2023-05-08T12:44:22;101577.41;;;45.47;33.98
19553;BME280;9420;50.876;7.012;2023-05-08T12:46:50;101569.16;;;45.19;34.60
19553;BME280;9420;50.876;7.012;2023-05-08T12:49:29;101558.78;;;44.98;34.50
19553;BME280;9420;50.876;7.012;2023-05-08T12:52:02;101556.44;;;45.56;34.53
19553;BME280;9420;50.876;7.012;2023-05-08T12:54:35;101560.22;;;43.92;35.00
19553;BME280;9420;50.876;7.012;2023-05-08T12:57:10;101554.88;;;44.14;35.91
19553;BME280;9420;50.876;7.012;2023-05-08T12:59:39;101561.84;;;43.01;35.98
19553;BME280;9420;50.876;7.012;2023-05-08T13:02:13;101548.38;;;44.20;35.59
19553;BME280;9420;50.876;7.012;2023-05-08T13:04:40;101551.09;;;43.69;35.73
19553;BME280;9420;50.876;7.012;2023-05-08T13:07:07;101545.63;;;43.85;36.43
19553;BME280;9420;50.876;7.012;2023-05-08T13:09:34;101548.66;;;44.07;35.57
19553;BME280;9420;50.876;7.012;2023-05-08T13:12:01;101548.78;;;43.31;36.43
19553;BME280;9420;50.876;7.012;2023-05-08T13:14:28;101553.84;;;43.46;35.77
19553;BME280;9420;50.876;7.012;2023-05-08T13:16:56;101546.97;;;42.84;36.13
19553;BME280;9420;50.876;7.012;2023-05-08T13:19:24;101548.41;;;42.75;36.77
19553;BME280;9420;50.876;7.012;2023-05-08T13:21:52;101542.34;;;42.96;36.47
19553;BME280;9420;50.876;7.012;2023-05-08T13:24:19;101538.53;;;43.31;35.56